createdAt,value
2022-08-18T00:04:58.345Z,37.40
2022-08-18T00:07:31.547Z,35.80
2022-08-18T00:10:02.853Z,37.80
2022-08-18T00:12:39.370Z,37.40
2022-08-18T00:15:12.867Z,35.80
2022-08-18T00:17:44.165Z,34.40
2022-08-18T00:20:17.657Z,40.20
2022-08-18T00:22:49.663Z,40.80
2022-08-18T00:25:21.159Z,37.20
2022-08-18T00:27:51.689Z,37.40
2022-08-18T00:30:22.838Z,40.00
2022-08-18T00:32:56.237Z,38.00
2022-08-18T00:35:36.029Z,37.20
2022-08-18T00:38:08.459Z,37.40
2022-08-18T00:40:43.830Z,39.00
2022-08-18T00:43:25.988Z,38.80
2022-08-18T00:45:56.530Z,41.60
2022-08-18T00:48:28.300Z,39.80
2022-08-18T00:51:01.698Z,41.60
2022-08-18T00:53:37.905Z,39.00
2022-08-18T00:56:11.535Z,40.60
2022-08-18T00:58:53.097Z,37.40
2022-08-18T01:01:26.365Z,39.00
2022-08-18T01:04:02.327Z,39.40
2022-08-18T01:06:41.579Z,39.00
2022-08-18T01:09:12.263Z,37.80
2022-08-18T01:11:42.739Z,39.80
2022-08-18T01:14:14.934Z,37.20
2022-08-18T01:16:56.617Z,37.40
2022-08-18T01:19:23.803Z,40.20
2022-08-18T01:21:57.147Z,36.60
2022-08-18T01:24:30.553Z,36.40
2022-08-18T01:27:01.735Z,38.20
2022-08-18T01:29:38.095Z,36.00
2022-08-18T01:32:10.298Z,36.60
2022-08-18T01:34:40.869Z,38.40
2022-08-18T01:37:11.333Z,36.00
2022-08-18T01:41:23.961Z,36.40
2022-08-18T01:42:15.914Z,39.20
2022-08-18T01:44:47.641Z,37.20
2022-08-18T01:47:19.511Z,39.20
2022-08-18T01:49:49.926Z,37.60
2022-08-18T01:52:22.223Z,36.00
2022-08-18T01:54:53.163Z,39.40
2022-08-18T01:57:24.203Z,33.00
2022-08-18T01:59:55.119Z,33.60
2022-08-18T02:02:28.749Z,38.40
2022-08-18T02:05:02.058Z,38.20
2022-08-18T02:07:36.418Z,38.00
2022-08-18T02:10:12.192Z,36.60
2022-08-18T02:12:42.715Z,36.60
2022-08-18T02:15:13.519Z,37.80
2022-08-18T02:17:46.429Z,37.00
2022-08-18T02:20:19.141Z,34.20
2022-08-18T02:22:51.851Z,37.60
2022-08-18T02:25:22.459Z,33.80
2022-08-18T02:27:53.081Z,37.20
2022-08-18T02:30:23.842Z,38.20
2022-08-18T02:32:54.237Z,38.00
2022-08-18T02:35:24.947Z,39.20
2022-08-18T02:37:55.469Z,36.40
2022-08-18T02:40:25.923Z,32.80
2022-08-18T02:42:56.641Z,35.40
2022-08-18T02:45:27.261Z,34.80
2022-08-18T02:47:57.769Z,36.80
2022-08-18T02:50:28.299Z,36.00
2022-08-18T02:52:58.804Z,36.00
2022-08-18T02:55:29.258Z,38.20
2022-08-18T02:57:59.745Z,34.00
2022-08-18T03:00:30.324Z,36.00
2022-08-18T03:03:00.832Z,37.20
2022-08-18T03:05:31.336Z,36.00
2022-08-18T03:08:01.985Z,36.00
2022-08-18T03:10:34.184Z,36.60
2022-08-18T03:13:05.297Z,36.60
2022-08-18T03:15:35.909Z,42.40
2022-08-18T03:18:06.437Z,37.40
2022-08-18T03:20:36.974Z,41.80
2022-08-18T03:23:10.026Z,35.20
2022-08-18T03:25:49.354Z,40.20
2022-08-18T03:28:19.763Z,40.20
2022-08-18T03:30:50.293Z,38.60
2022-08-18T03:33:21.792Z,38.00
2022-08-18T03:35:54.088Z,41.00
2022-08-18T03:38:24.487Z,40.00
2022-08-18T03:40:56.394Z,39.20
2022-08-18T03:43:51.424Z,40.00
2022-08-18T03:46:04.281Z,39.20
2022-08-18T03:48:34.791Z,38.00
2022-08-18T03:51:07.084Z,36.00
2022-08-18T03:53:38.688Z,36.00
2022-08-18T03:56:14.411Z,39.40
2022-08-18T03:58:49.934Z,40.60
2022-08-18T04:01:26.322Z,37.40
2022-08-18T04:03:58.174Z,38.60
2022-08-18T04:06:34.583Z,36.40
2022-08-18T04:09:07.758Z,38.00
2022-08-18T04:11:39.463Z,37.40
2022-08-18T04:14:12.828Z,39.80
2022-08-18T04:16:45.318Z,37.40
2022-08-18T04:19:22.670Z,39.20
2022-08-18T04:21:52.270Z,37.60
2022-08-18T04:24:23.178Z,38.20
2022-08-18T04:26:53.622Z,38.20
2022-08-18T04:29:24.123Z,37.20
2022-08-18T04:31:55.332Z,35.40
2022-08-18T04:34:33.637Z,35.00
2022-08-18T04:37:04.193Z,36.20
2022-08-18T04:39:35.354Z,38.00
2022-08-18T04:42:06.102Z,38.00
2022-08-18T04:44:37.432Z,36.00
2022-08-18T04:47:09.088Z,35.20
2022-08-18T04:49:39.897Z,36.00
2022-08-18T04:52:37.404Z,35.80
2022-08-18T04:54:43.291Z,31.00
2022-08-18T04:57:16.279Z,33.20
2022-08-18T04:59:49.400Z,35.60
2022-08-18T05:02:21.782Z,37.80
2022-08-18T05:04:52.274Z,33.60
2022-08-18T05:07:23.103Z,32.80
2022-08-18T05:09:53.685Z,33.80
2022-08-18T05:12:26.267Z,34.20
2022-08-18T05:14:57.551Z,35.40
2022-08-18T05:17:29.959Z,34.20
2022-08-18T05:20:01.876Z,33.20
2022-08-18T05:22:38.291Z,34.60
2022-08-18T05:25:10.780Z,30.80
2022-08-18T05:27:43.281Z,31.80
2022-08-18T05:30:13.971Z,32.20
2022-08-18T05:32:49.095Z,30.60
2022-08-18T05:35:30.065Z,32.80
2022-08-18T05:38:21.422Z,31.80
2022-08-18T05:41:13.696Z,32.20
2022-08-18T05:43:51.481Z,32.80
2022-08-18T05:46:21.952Z,32.00
2022-08-18T05:48:53.505Z,29.60
2022-08-18T05:51:27.761Z,30.00
2022-08-18T05:53:58.901Z,29.80
2022-08-18T05:56:32.200Z,29.00
2022-08-18T05:59:02.941Z,29.20
2022-08-18T06:01:42.463Z,29.60
2022-08-18T06:04:18.520Z,30.60
2022-08-18T06:06:50.299Z,46.00
2022-08-18T06:09:29.971Z,38.20
2022-08-18T06:12:03.340Z,34.40
2022-08-18T06:14:35.741Z,29.80
2022-08-18T06:17:30.195Z,32.40
2022-08-18T06:20:23.205Z,37.00
2022-08-18T06:23:33.037Z,27.20
2022-08-18T06:26:26.939Z,29.00
2022-08-18T06:29:18.235Z,39.80
2022-08-18T06:32:08.206Z,29.60
2022-08-18T06:34:54.530Z,29.60
2022-08-18T06:37:28.257Z,27.20
2022-08-18T06:39:58.782Z,27.60
2022-08-18T06:42:30.107Z,26.00
2022-08-18T06:45:09.593Z,27.00
2022-08-18T06:47:58.223Z,25.80
2022-08-18T06:50:34.559Z,27.80
2022-08-18T06:53:08.104Z,28.60
2022-08-18T06:55:44.103Z,28.40
2022-08-18T06:58:21.384Z,28.20
2022-08-18T07:01:08.649Z,29.20
2022-08-18T07:03:43.145Z,29.40
2022-08-18T07:06:22.852Z,32.20
2022-08-18T07:08:56.787Z,32.20
2022-08-18T07:11:30.857Z,34.60
2022-08-18T07:14:22.433Z,27.20
2022-08-18T07:17:01.779Z,110.00
2022-08-18T07:19:33.346Z,34.00
2022-08-18T07:22:17.027Z,63.80
2022-08-18T07:24:51.890Z,45.40
2022-08-18T07:27:25.156Z,33.40
2022-08-18T07:30:07.464Z,27.80
2022-08-18T07:32:51.224Z,25.80
2022-08-18T07:35:27.987Z,32.60
2022-08-18T07:38:41.040Z,32.40
2022-08-18T07:40:53.717Z,30.80
2022-08-18T07:43:27.066Z,31.80
2022-08-18T07:46:00.564Z,50.00
2022-08-18T07:48:38.579Z,39.60
2022-08-18T07:51:21.124Z,31.60
2022-08-18T07:54:04.269Z,31.20
2022-08-18T07:57:04.307Z,36.80
2022-08-18T07:59:52.433Z,30.20
2022-08-18T08:02:42.126Z,30.60
2022-08-18T08:05:37.735Z,27.60
2022-08-18T08:08:25.081Z,26.60
2022-08-18T08:11:09.788Z,28.00
2022-08-18T08:13:55.250Z,25.80
2022-08-18T08:16:35.974Z,24.80
2022-08-18T08:19:12.143Z,25.20
2022-08-18T08:21:53.004Z,27.80
2022-08-18T08:24:35.428Z,24.20
2022-08-18T08:27:11.430Z,24.60
2022-08-18T08:29:51.280Z,24.20
2022-08-18T08:32:26.999Z,25.60
2022-08-18T08:35:14.065Z,26.60
2022-08-18T08:37:56.766Z,25.40
2022-08-18T08:40:30.758Z,23.40
2022-08-18T08:43:06.923Z,26.20
2022-08-18T08:45:51.908Z,22.00
2022-08-18T08:48:25.208Z,24.80
2022-08-18T08:51:15.009Z,25.40
2022-08-18T08:53:51.904Z,24.40
2022-08-18T08:56:25.394Z,24.60
2022-08-18T08:59:07.345Z,23.00
2022-08-18T09:01:57.017Z,27.00
2022-08-18T09:05:07.365Z,25.20
2022-08-18T09:10:20.991Z,25.60
2022-08-18T09:13:00.307Z,27.00
2022-08-18T09:15:51.798Z,23.40
2022-08-18T09:18:55.285Z,25.20
2022-08-18T09:21:34.035Z,24.60
2022-08-18T09:24:30.512Z,25.20
2022-08-18T09:27:15.631Z,24.60
2022-08-18T09:30:00.987Z,22.40
2022-08-18T09:32:44.388Z,24.80
2022-08-18T09:41:03.597Z,21.00
2022-08-18T09:43:50.579Z,23.60
2022-08-18T09:46:53.916Z,26.60
2022-08-18T09:49:27.222Z,23.40
2022-08-18T09:52:02.169Z,25.00
2022-08-18T09:54:36.009Z,27.20
2022-08-18T09:57:13.751Z,23.80
2022-08-18T10:00:09.734Z,21.60
2022-08-18T10:02:48.713Z,21.40
2022-08-18T10:05:22.466Z,21.60
2022-08-18T10:08:11.524Z,23.60
2022-08-18T10:11:02.722Z,25.20
2022-08-18T10:13:49.522Z,24.60
2022-08-18T10:16:25.772Z,25.60
2022-08-18T10:19:11.718Z,25.00
2022-08-18T10:21:59.871Z,23.00
2022-08-18T10:24:37.035Z,24.20
2022-08-18T10:27:11.075Z,25.00
2022-08-18T10:29:53.853Z,22.80
2022-08-18T10:32:27.385Z,18.20
2022-08-18T10:34:59.570Z,23.40
2022-08-18T10:37:41.803Z,23.40
2022-08-18T10:40:21.303Z,22.20
2022-08-18T10:43:45.237Z,18.20
2022-08-18T10:46:24.204Z,20.60
2022-08-18T10:48:31.019Z,23.60
2022-08-18T10:54:09.410Z,24.20
2022-08-18T10:56:46.407Z,15.20
2022-08-18T10:59:41.490Z,15.00
2022-08-18T11:02:30.248Z,16.00
2022-08-18T11:05:03.460Z,15.00
2022-08-18T11:07:35.821Z,16.80
2022-08-18T11:10:30.807Z,16.00
2022-08-18T11:13:16.471Z,18.60
2022-08-18T11:16:03.455Z,22.40
2022-08-18T11:21:44.078Z,20.00
2022-08-18T11:24:29.547Z,20.60
2022-08-18T11:29:43.054Z,20.20
2022-08-18T11:32:28.449Z,20.40
2022-08-18T11:35:07.769Z,21.60
2022-08-18T11:37:49.788Z,21.20
2022-08-18T11:41:09.087Z,20.80
2022-08-18T11:43:13.504Z,24.60
2022-08-18T11:45:49.681Z,20.40
2022-08-18T11:51:31.741Z,21.00
2022-08-18T11:54:16.652Z,24.60
2022-08-18T11:56:47.158Z,22.00
2022-08-18T11:59:53.605Z,24.00
2022-08-18T12:02:02.173Z,23.20
2022-08-18T12:04:41.244Z,25.60
2022-08-18T12:07:20.927Z,22.40
2022-08-18T12:12:49.986Z,27.40
2022-08-18T12:15:24.858Z,27.20
2022-08-18T12:17:56.011Z,26.00
2022-08-18T12:20:27.968Z,27.20
2022-08-18T12:23:01.616Z,22.80
2022-08-18T12:25:32.360Z,29.20
2022-08-18T12:28:02.891Z,29.20
2022-08-18T12:30:33.514Z,25.80
2022-08-18T12:33:12.343Z,27.20
2022-08-18T12:35:43.199Z,29.80
2022-08-18T12:38:14.595Z,27.20
2022-08-18T12:40:46.788Z,28.60
2022-08-18T12:43:20.187Z,29.20
2022-08-18T12:46:08.353Z,30.00
2022-08-18T12:48:42.250Z,32.00
2022-08-18T12:54:10.468Z,27.20
2022-08-18T13:00:29.549Z,27.60
2022-08-18T13:03:00.073Z,27.60
2022-08-18T13:05:31.210Z,23.00
2022-08-18T13:08:08.642Z,27.60
2022-08-18T13:10:46.657Z,25.40
2022-08-18T13:13:17.395Z,26.00
2022-08-18T13:15:58.575Z,28.40
2022-08-18T13:18:28.603Z,29.00
2022-08-18T13:20:54.937Z,30.40
2022-08-18T13:23:25.899Z,27.40
2022-08-18T13:26:01.231Z,30.20
2022-08-18T13:28:35.649Z,30.40
2022-08-18T13:31:05.547Z,28.20
2022-08-18T13:33:57.010Z,30.00
2022-08-18T13:36:13.153Z,32.00
2022-08-18T13:38:54.695Z,29.80
2022-08-18T13:41:23.412Z,30.20
2022-08-18T13:43:54.726Z,19.80
2022-08-18T13:46:30.960Z,31.80
2022-08-18T13:48:57.366Z,34.40
2022-08-18T13:51:28.777Z,32.20
2022-08-18T13:54:18.722Z,33.40
2022-08-18T13:56:32.858Z,36.80
2022-08-18T13:59:03.351Z,37.60
2022-08-18T14:01:45.140Z,31.80
2022-08-18T14:04:12.588Z,31.60
2022-08-18T14:06:51.090Z,33.00
2022-08-18T14:09:19.888Z,35.00
2022-08-18T14:11:51.256Z,36.40
2022-08-18T14:14:19.606Z,34.80
2022-08-18T14:16:50.422Z,34.00
2022-08-18T14:19:26.736Z,36.20
2022-08-18T14:22:01.009Z,36.00
2022-08-18T14:24:33.296Z,32.60
2022-08-18T14:27:07.916Z,36.00
2022-08-18T14:29:45.635Z,33.60
2022-08-18T14:32:18.187Z,34.40
2022-08-18T14:34:50.726Z,35.20
2022-08-18T14:37:20.044Z,36.00
2022-08-18T14:39:54.033Z,35.00
2022-08-18T14:42:41.457Z,35.60
2022-08-18T14:45:17.105Z,38.00
2022-08-18T14:47:29.959Z,35.80
2022-08-18T14:50:06.116Z,35.80
2022-08-18T14:52:48.932Z,38.80
2022-08-18T14:55:19.567Z,35.00
2022-08-18T14:57:50.015Z,39.20
2022-08-18T15:00:21.072Z,37.20
2022-08-18T15:06:27.399Z,35.60
2022-08-18T15:08:57.958Z,34.40
2022-08-18T15:11:32.035Z,32.20
2022-08-18T15:14:04.431Z,33.80
2022-08-18T15:16:38.571Z,30.60
2022-08-18T15:22:46.447Z,31.80
2022-08-18T15:25:29.355Z,30.20
2022-08-18T15:28:00.298Z,9.20
2022-08-18T15:30:31.866Z,32.80
2022-08-18T15:33:03.304Z,29.00
2022-08-18T15:35:35.971Z,31.20
2022-08-18T15:38:11.791Z,32.60
2022-08-18T15:40:59.084Z,32.40
2022-08-18T15:43:31.504Z,31.00
2022-08-18T15:46:03.714Z,30.20
2022-08-18T15:48:34.681Z,32.60
2022-08-18T15:54:50.289Z,32.60
2022-08-18T15:57:35.230Z,34.20
2022-08-18T15:59:49.134Z,30.40
2022-08-18T16:08:51.671Z,29.60
2022-08-18T16:11:29.550Z,24.40
2022-08-18T16:13:57.583Z,32.80
2022-08-18T16:16:47.216Z,27.80
2022-08-18T16:19:17.631Z,31.40
2022-08-18T16:21:48.549Z,28.80
2022-08-18T16:24:19.190Z,27.20
2022-08-18T16:26:50.124Z,26.40
2022-08-18T16:29:22.790Z,25.60
2022-08-18T16:31:53.106Z,24.20
2022-08-18T16:34:30.446Z,26.60
2022-08-18T16:40:27.988Z,24.40
2022-08-18T16:42:58.761Z,25.40
2022-08-18T16:48:35.441Z,27.80
2022-08-18T17:01:18.702Z,27.20
2022-08-18T17:06:27.518Z,28.00
2022-08-18T17:15:10.641Z,25.40
2022-08-18T17:17:44.100Z,24.00
2022-08-18T17:20:17.725Z,26.80
2022-08-18T17:22:49.342Z,25.00
2022-08-18T17:25:22.830Z,27.20
2022-08-18T17:28:09.978Z,23.60
2022-08-18T17:30:39.095Z,24.80
2022-08-18T17:33:12.752Z,27.20
2022-08-18T17:36:06.615Z,27.40
2022-08-18T17:38:46.120Z,24.20
2022-08-18T17:41:23.904Z,24.40
2022-08-18T17:43:56.497Z,23.00
2022-08-18T17:46:35.410Z,22.60
2022-08-18T17:49:24.081Z,23.20
2022-08-18T17:51:56.545Z,24.00
2022-08-18T17:55:03.717Z,23.80
2022-08-18T17:57:39.144Z,22.40
2022-08-18T18:00:17.041Z,23.60
2022-08-18T18:02:48.277Z,23.20
2022-08-18T18:05:21.322Z,26.80
2022-08-18T18:08:18.154Z,25.00
2022-08-18T18:11:04.265Z,22.20
2022-08-18T18:13:25.189Z,22.80
2022-08-18T18:16:24.430Z,23.40
2022-08-18T18:19:03.608Z,20.80
2022-08-18T18:22:00.338Z,21.60
2022-08-18T18:24:16.884Z,19.80
2022-08-18T18:26:54.095Z,21.60
2022-08-18T18:29:29.031Z,21.20
2022-08-18T18:32:05.089Z,23.40
2022-08-18T18:34:47.294Z,24.20
2022-08-18T18:37:31.631Z,20.80
2022-08-18T18:40:05.424Z,21.40
2022-08-18T18:42:37.181Z,21.40
2022-08-18T18:45:10.269Z,21.00
2022-08-18T18:48:06.141Z,23.20
2022-08-18T18:50:49.411Z,24.20
2022-08-18T18:53:30.828Z,18.80
2022-08-18T18:59:23.507Z,27.40
2022-08-18T19:02:29.495Z,28.00
2022-08-18T19:05:20.175Z,24.00
2022-08-18T19:08:06.366Z,24.80
2022-08-18T19:10:45.128Z,28.20
2022-08-18T19:13:32.422Z,28.20
2022-08-18T19:16:04.797Z,28.00
2022-08-18T19:22:02.225Z,30.00
2022-08-18T19:24:24.137Z,28.80
2022-08-18T19:26:57.598Z,30.60
2022-08-18T19:29:31.391Z,27.40
2022-08-18T19:32:18.013Z,31.00
2022-08-18T19:34:51.489Z,30.80
2022-08-18T19:37:38.271Z,32.60
2022-08-18T19:59:11.472Z,31.60
2022-08-18T20:01:46.969Z,30.60
2022-08-18T20:04:48.405Z,33.00
2022-08-18T20:07:55.797Z,32.80
2022-08-18T20:10:54.919Z,34.20
2022-08-18T20:13:43.223Z,30.80
2022-08-18T20:16:21.233Z,36.00
2022-08-18T20:18:52.665Z,33.00
2022-08-18T20:21:31.915Z,33.20
2022-08-18T20:24:07.829Z,32.20
2022-08-18T20:26:41.357Z,32.20
2022-08-18T20:29:14.874Z,34.80
2022-08-18T20:31:48.445Z,32.40
2022-08-18T20:34:21.531Z,28.60
2022-08-18T20:36:53.611Z,32.40
2022-08-18T20:39:51.708Z,32.60
2022-08-18T20:42:25.282Z,35.20
2022-08-18T20:45:01.664Z,36.60
2022-08-18T20:47:38.180Z,35.60
2022-08-18T20:53:40.716Z,36.60
2022-08-18T20:56:32.595Z,35.60
2022-08-18T20:59:00.796Z,34.40
2022-08-18T21:01:32.849Z,32.40
2022-08-18T21:04:03.389Z,33.00
2022-08-18T21:09:30.921Z,36.80
2022-08-18T21:12:01.402Z,34.60
2022-08-18T21:14:32.054Z,38.60
2022-08-18T21:17:08.761Z,33.60
2022-08-18T21:19:41.194Z,37.00
2022-08-18T21:22:12.674Z,37.20
2022-08-18T21:24:45.489Z,38.40
2022-08-18T21:27:35.738Z,40.60
2022-08-18T21:30:20.928Z,38.80
2022-08-18T21:32:52.417Z,39.00
2022-08-18T21:35:32.130Z,37.00
2022-08-18T21:38:08.948Z,38.80
2022-08-18T21:40:48.026Z,38.80
2022-08-18T21:46:32.297Z,39.00
2022-08-18T21:49:04.377Z,38.40
2022-08-18T21:52:05.002Z,40.00
2022-08-18T21:54:36.278Z,38.00
2022-08-18T21:57:40.318Z,40.00
2022-08-18T22:00:28.333Z,39.20
2022-08-18T22:03:20.880Z,39.20
2022-08-18T22:11:51.983Z,37.40
2022-08-18T22:14:14.206Z,36.60
2022-08-18T22:16:47.066Z,36.80
2022-08-18T22:19:41.123Z,36.60
2022-08-18T22:22:11.833Z,39.60
2022-08-18T22:24:44.103Z,38.40
2022-08-18T22:27:17.441Z,41.80
2022-08-18T22:29:54.111Z,30.60
2022-08-18T22:32:24.875Z,40.80
2022-08-18T22:34:55.427Z,39.80
2022-08-18T22:37:28.990Z,41.60
2022-08-18T22:40:04.678Z,41.00
2022-08-18T22:42:35.201Z,40.00
2022-08-18T22:45:08.624Z,41.00
2022-08-18T22:47:43.719Z,40.40
2022-08-18T22:50:13.273Z,40.20
2022-08-18T22:52:46.681Z,43.40
2022-08-18T22:55:22.021Z,39.60
2022-08-18T22:57:56.342Z,41.20
2022-08-18T23:00:25.553Z,43.00
2022-08-18T23:02:56.307Z,39.40
2022-08-18T23:05:27.156Z,42.40
2022-08-18T23:07:57.536Z,40.00
2022-08-18T23:10:28.409Z,41.60
2022-08-18T23:13:03.760Z,38.60
2022-08-18T23:15:31.694Z,38.40
2022-08-18T23:18:02.067Z,40.00
2022-08-18T23:20:32.481Z,37.60
2022-08-18T23:23:04.677Z,42.00
2022-08-18T23:25:35.297Z,38.20
2022-08-18T23:28:05.646Z,38.50
2022-08-18T23:30:37.592Z,40.75
2022-08-18T23:33:08.583Z,41.00
2022-08-18T23:35:41.164Z,40.20
2022-08-18T23:38:12.607Z,42.40
2022-08-18T23:40:48.480Z,39.60
2022-08-18T23:43:19.634Z,37.00
2022-08-18T23:45:50.413Z,38.00
2022-08-18T23:48:20.923Z,38.60
2022-08-18T23:50:51.344Z,36.40
2022-08-18T23:53:21.723Z,37.00
2022-08-18T23:55:52.165Z,40.80
2022-08-18T23:58:22.522Z,36.80
